METAR AND TAF INFORMATION
METAR FOR ENCN
ADDS - METARS form results

(0008 UTC 06 July 2020)
Data provider http://aviationweather.gov/metar/data/
 
METAR text: ENCN 052350Z AUTO 24013KT 9999 -DZ FEW021/// SCT028/// BKN042/// 12/08 Q0992 REDZ
Conditions at: ENCN (KRISTIANSAND/KJE, NO) observed 2350 UTC 05 July 2020
Temperature: 12.0°C (54°F)
Dewpoint: 8.0°C (46°F) [RH = 76%]
Pressure (altimeter): 29.29 inches Hg (992.0 mb)
Winds: from the WSW (240 degrees) at 15 MPH (13 knots; 6.7 m/s)
Visibility: 6 or more miles (10+ km)
Ceiling: 4200 feet AGL
Clouds: few clouds at 2100 feet AGL
scattered clouds at 2800 feet AGL
broken clouds at 4200 feet AGL
Weather: -DZ  (light drizzle)

METAR text: ENCN 052320Z AUTO 24015KT 9999 FEW024/// 12/08 Q0992
Conditions at: ENCN (KRISTIANSAND/KJE, NO) observed 2320 UTC 05 July 2020
Temperature: 12.0°C (54°F)
Dewpoint: 8.0°C (46°F) [RH = 76%]
Pressure (altimeter): 29.29 inches Hg (992.0 mb)
Winds: from the WSW (240 degrees) at 17 MPH (15 knots; 7.7 m/s)
Visibility: 6 or more miles (10+ km)
Ceiling: at least 12,000 feet AGL
Clouds: few clouds at 2400 feet AGL
Weather: no significant weather observed at this time

Forecast for: ENCN (KRISTIANSAND/KJE, NO)
Text: TAF ENCN 051400Z 0515/0519 21020KT 9999 FEW012 BKN025
Forecast period: 1500 to 1900 UTC 05 July 2020
Forecast type: FROM: standard forecast or significant change
Winds: from the SSW (210 degrees) at 23 MPH (20 knots; 10.3 m/s)
Visibility: 6 or more miles 10+ km)
Ceiling: 2500 feet AGL
Clouds: few clouds at 1200 feet AGL
broken clouds at 2500 feet AGL
Weather: no significant weather forecast for this period
Text: TEMPO 0515/0519 24025G35KT SHRA BKN012 FEW020CB
Forecast period: 1500 to 1900 UTC 05 July 2020
Forecast type: TEMPORARY: The following changes expected for less than half the time period
Winds: from the WSW (240 degrees) at 29 MPH (25 knots; 12.9 m/s)
gusting to 40 MPH (35 knots; 18.0 m/s)
Visibility: missing
Ceiling: 1200 feet AGL
Clouds: broken clouds at 1200 feet AGL
few clouds at 2000 feet AGL
Weather: SHRA  (rain showers)

 AIRPORT MAP

 RUNWAY INFORMATION
Runway 04 Runway length 6660 ft Runway width 148 ft
Runway elevation 41 ft Runway displaced threshold 394 ft Runway heading 35
Runway 22 Runway length 6660 ft Runway width 148 ft
Runway elevation 52 ft Runway displaced threshold 623 ft Runway heading 215

 AIRPORT FREQUENCIES
Type ATIS Name INFO Frequency 124.475 MHZ
Type TWR Name TWR Frequency 118.1 MHZ

 AIRPORT NEAR NAVIGATION AIDS
Type NDB Name Odderoy Frequency 372 KHZ
Type VOR-DME Name Svensheia Frequency 112100 KHZ



Powered by Virtual Airlines Manager [v2.6.2]